Time;durP1;ratioP1;P1;durP2;ratioP2;P2;SDS_P1;SDS_P2;PMS_P1;PMS_P2;Temp;Humidity;BMP_temperature;BMP_pressure;BME280_temperature;BME280_humidity;BME280_pressure;Samples;Min_cycle;Max_cycle;Signal;HPM_P1;HPM_P2
2023/08/14 00:00:40;;;;;;;6.35;2.13;;;;;;;;;;5074950;28;20059;-80
2023/08/14 00:03:05;;;;;;;5.28;2.67;;;;;;;;;;5061375;28;20032;-81
2023/08/14 00:05:32;;;;;;;5.93;2.13;;;;;;;;;;5072119;28;20016;-80
2023/08/14 00:07:58;;;;;;;5.30;2.35;;;;;;;;;;5074056;28;20227;-80
2023/08/14 00:10:23;;;;;;;8.00;2.00;;;;;;;;;;5074256;28;20051;-81
2023/08/14 00:12:49;;;;;;;4.25;2.30;;;;;;;;;;5063890;28;20029;-80
2023/08/14 00:15:14;;;;;;;3.75;2.10;;;;;;;;;;5019286;28;1258580;-81
2023/08/14 00:17:40;;;;;;;4.25;2.17;;;;;;;;;;5072593;28;20031;-80
2023/08/14 00:20:05;;;;;;;7.80;2.60;;;;;;;;;;5069083;28;20043;-80
2023/08/14 00:22:31;;;;;;;8.75;2.55;;;;;;;;;;5090109;28;20025;-80
2023/08/14 00:24:56;;;;;;;9.40;2.35;;;;;;;;;;5090507;28;20518;-80
2023/08/14 00:27:25;;;;;;;9.23;2.45;;;;;;;;;;5082838;28;20020;-80
2023/08/14 00:29:50;;;;;;;4.82;2.35;;;;;;;;;;5067318;28;20504;-80
2023/08/14 00:32:15;;;;;;;6.32;2.78;;;;;;;;;;5075854;28;20105;-80
2023/08/14 00:34:41;;;;;;;4.80;2.75;;;;;;;;;;5076791;28;20127;-80
2023/08/14 00:37:06;;;;;;;8.15;2.70;;;;;;;;;;5065124;28;20031;-80
2023/08/14 00:39:32;;;;;;;13.65;2.40;;;;;;;;;;5076900;28;20020;-80
2023/08/14 00:41:57;;;;;;;4.78;2.30;;;;;;;;;;5067342;28;20055;-80
2023/08/14 00:44:23;;;;;;;5.47;2.65;;;;;;;;;;5101064;28;20344;-80
2023/08/14 00:46:56;;;;;;;7.68;2.30;;;;;;;;;;5072903;28;20028;-84
2023/08/14 00:49:22;;;;;;;6.60;2.05;;;;;;;;;;5083963;28;20024;-85
2023/08/14 00:51:47;;;;;;;5.72;2.63;;;;;;;;;;5079130;28;20028;-85
2023/08/14 00:54:13;;;;;;;7.35;2.70;;;;;;;;;;5074301;28;20020;-85
2023/08/14 00:56:38;;;;;;;6.72;2.60;;;;;;;;;;5064264;28;20108;-85
2023/08/14 00:59:04;;;;;;;8.18;2.40;;;;;;;;;;5072890;28;20067;-85
2023/08/14 01:01:29;;;;;;;5.82;3.35;;;;;;;;;;5065227;28;20012;-84
2023/08/14 01:03:54;;;;;;;4.35;2.47;;;;;;;;;;5069285;28;20496;-84
2023/08/14 01:06:20;;;;;;;4.95;2.60;;;;;;;;;;5073498;28;20017;-84
2023/08/14 01:08:45;;;;;;;6.35;2.60;;;;;;;;;;5073750;28;20055;-84
2023/08/14 01:11:17;;;;;;;6.60;2.75;;;;;;;;;;5092011;28;20017;-84
2023/08/14 01:13:54;;;;;;;5.97;2.87;;;;;;;;;;5071255;28;20024;-83
2023/08/14 01:16:21;;;;;;;4.57;2.42;;;;;;;;;;5074405;28;20019;-84
2023/08/14 01:18:54;;;;;;;6.75;2.60;;;;;;;;;;5074735;28;20043;-85
2023/08/14 01:21:37;;;;;;;5.82;2.45;;;;;;;;;;5064777;28;20566;-84
2023/08/14 01:24:05;;;;;;;5.07;2.53;;;;;;;;;;5072897;28;20020;-84
2023/08/14 01:26:31;;;;;;;6.05;2.40;;;;;;;;;;5054078;28;20439;-85
2023/08/14 01:28:57;;;;;;;5.72;2.58;;;;;;;;;;5052948;28;20111;-85
2023/08/14 01:31:22;;;;;;;5.55;2.78;;;;;;;;;;5053916;28;20024;-85
2023/08/14 01:33:49;;;;;;;7.40;2.80;;;;;;;;;;5052958;28;20024;-84
2023/08/14 01:36:40;;;;;;;5.00;2.50;;;;;;;;;;5053975;28;20112;-84
2023/08/14 01:39:09;;;;;;;11.10;2.63;;;;;;;;;;5053825;28;20382;-84
2023/08/14 01:41:40;;;;;;;6.43;2.55;;;;;;;;;;5053909;28;20024;-85
2023/08/14 01:44:08;;;;;;;5.80;2.97;;;;;;;;;;5052408;28;20044;-84
2023/08/14 01:46:35;;;;;;;6.10;2.63;;;;;;;;;;5071335;28;20021;-84
2023/08/14 01:49:05;;;;;;;4.72;2.13;;;;;;;;;;5086819;28;20101;-84
2023/08/14 01:51:32;;;;;;;4.90;2.45;;;;;;;;;;5060101;28;20059;-84
2023/08/14 01:54:01;;;;;;;5.53;2.38;;;;;;;;;;5054006;28;20509;-84
2023/08/14 01:56:27;;;;;;;8.65;2.15;;;;;;;;;;5054250;28;20062;-84
2023/08/14 01:58:52;;;;;;;7.53;2.13;;;;;;;;;;5054194;28;20124;-84
2023/08/14 02:01:18;;;;;;;6.22;2.30;;;;;;;;;;5055714;28;20048;-84
2023/08/14 02:03:43;;;;;;;4.70;2.25;;;;;;;;;;5055268;28;20016;-84
2023/08/14 02:06:08;;;;;;;3.20;2.20;;;;;;;;;;5056210;28;20021;-84
2023/08/14 02:08:34;;;;;;;3.00;1.95;;;;;;;;;;5054813;28;20016;-84
2023/08/14 02:11:05;;;;;;;5.50;2.08;;;;;;;;;;5056098;28;20032;-83
2023/08/14 02:13:30;;;;;;;5.10;2.30;;;;;;;;;;5055330;28;20025;-83
2023/08/14 02:15:55;;;;;;;8.02;2.30;;;;;;;;;;5073609;28;20036;-84
2023/08/14 02:18:21;;;;;;;4.15;2.40;;;;;;;;;;5052628;28;20024;-83
2023/08/14 02:20:47;;;;;;;6.05;2.08;;;;;;;;;;5054722;28;20032;-85
2023/08/14 02:23:12;;;;;;;3.78;2.28;;;;;;;;;;5071082;28;20110;-84
2023/08/14 02:25:43;;;;;;;5.45;2.17;;;;;;;;;;5053860;28;20082;-83
2023/08/14 02:28:09;;;;;;;8.85;2.92;;;;;;;;;;5069941;28;20028;-83
2023/08/14 02:30:35;;;;;;;5.03;2.10;;;;;;;;;;5054266;28;20027;-85
2023/08/14 02:33:00;;;;;;;7.15;2.10;;;;;;;;;;5071851;28;20021;-83
2023/08/14 02:35:25;;;;;;;3.80;2.00;;;;;;;;;;5053889;28;20107;-84
2023/08/14 02:37:51;;;;;;;3.08;1.95;;;;;;;;;;5052493;28;20028;-84
2023/08/14 02:40:16;;;;;;;9.50;2.03;;;;;;;;;;5071207;28;20031;-84
2023/08/14 02:42:44;;;;;;;5.45;2.10;;;;;;;;;;5053073;28;20021;-83
2023/08/14 02:45:09;;;;;;;4.88;2.20;;;;;;;;;;5054537;28;20094;-84
2023/08/14 02:47:37;;;;;;;4.03;2.17;;;;;;;;;;5052505;28;20020;-84
2023/08/14 02:50:03;;;;;;;5.18;2.15;;;;;;;;;;5053459;28;20039;-84
2023/08/14 02:52:28;;;;;;;3.53;1.90;;;;;;;;;;5053028;28;20565;-84
2023/08/14 02:54:54;;;;;;;6.82;2.40;;;;;;;;;;5070706;28;20401;-84
2023/08/14 02:57:19;;;;;;;3.05;2.35;;;;;;;;;;5051789;28;20123;-84
2023/08/14 02:59:44;;;;;;;5.35;2.55;;;;;;;;;;5051956;28;20027;-84
2023/08/14 03:02:10;;;;;;;6.03;2.80;;;;;;;;;;5055564;28;20571;-84
2023/08/14 03:04:38;;;;;;;3.95;2.30;;;;;;;;;;5055907;28;20019;-84
2023/08/14 03:07:03;;;;;;;8.25;3.05;;;;;;;;;;5044517;28;20364;-84
2023/08/14 03:09:31;;;;;;;5.20;2.40;;;;;;;;;;5069310;28;20044;-84
2023/08/14 03:12:02;;;;;;;4.35;2.42;;;;;;;;;;5078941;28;20040;-84
2023/08/14 03:14:28;;;;;;;6.72;2.70;;;;;;;;;;5059573;28;20099;-84
2023/08/14 03:16:53;;;;;;;4.45;2.30;;;;;;;;;;5057314;28;20032;-84
2023/08/14 03:19:19;;;;;;;6.18;2.60;;;;;;;;;;5056246;28;20091;-83
2023/08/14 03:21:53;;;;;;;2.72;1.90;;;;;;;;;;5058046;28;20062;-84
2023/08/14 03:24:22;;;;;;;9.02;2.55;;;;;;;;;;5089877;28;20028;-85
2023/08/14 03:26:48;;;;;;;5.90;2.22;;;;;;;;;;5068878;28;20086;-84
2023/08/14 03:29:13;;;;;;;3.90;2.45;;;;;;;;;;5075673;28;20028;-84
2023/08/14 03:31:39;;;;;;;6.13;2.30;;;;;;;;;;5071524;28;20024;-84
2023/08/14 03:34:04;;;;;;;3.92;2.25;;;;;;;;;;5080362;28;20035;-84
2023/08/14 03:36:32;;;;;;;5.55;2.60;;;;;;;;;;5068443;28;20030;-85
2023/08/14 03:38:58;;;;;;;4.68;2.28;;;;;;;;;;5066322;28;20123;-84
2023/08/14 03:41:23;;;;;;;3.85;2.47;;;;;;;;;;5070637;28;20048;-85
2023/08/14 03:43:48;;;;;;;4.25;2.30;;;;;;;;;;5052737;28;20448;-84
2023/08/14 03:46:17;;;;;;;14.00;2.95;;;;;;;;;;5058237;28;20116;-84
2023/08/14 03:48:45;;;;;;;3.72;2.55;;;;;;;;;;5055977;28;20037;-84
2023/08/14 03:51:12;;;;;;;9.65;3.20;;;;;;;;;;5073316;28;20775;-84
2023/08/14 03:53:38;;;;;;;7.47;2.95;;;;;;;;;;5056640;28;20648;-84
2023/08/14 03:56:06;;;;;;;6.03;3.30;;;;;;;;;;5056720;28;20039;-83
2023/08/14 03:58:31;;;;;;;5.28;3.13;;;;;;;;;;5054053;28;20482;-84
2023/08/14 04:00:56;;;;;;;5.65;2.95;;;;;;;;;;5055374;28;20020;-84
2023/08/14 04:03:23;;;;;;;8.13;3.50;;;;;;;;;;5055619;28;20602;-84
2023/08/14 04:05:54;;;;;;;4.97;2.85;;;;;;;;;;5055643;28;20101;-84
2023/08/14 04:08:20;;;;;;;3.88;2.78;;;;;;;;;;5055354;28;20479;-84
2023/08/14 04:10:46;;;;;;;5.65;2.92;;;;;;;;;;5056404;28;20525;-84
2023/08/14 04:13:12;;;;;;;8.18;3.10;;;;;;;;;;5040976;28;20016;-84
2023/08/14 04:15:37;;;;;;;6.13;3.08;;;;;;;;;;5054639;28;20106;-84
2023/08/14 04:18:11;;;;;;;5.50;2.90;;;;;;;;;;5054749;28;20024;-85
2023/08/14 04:20:37;;;;;;;7.13;3.53;;;;;;;;;;5055583;28;20441;-84
2023/08/14 04:23:06;;;;;;;7.10;2.88;;;;;;;;;;5054983;28;20036;-85
2023/08/14 04:25:31;;;;;;;3.15;2.13;;;;;;;;;;5070745;28;20452;-85
2023/08/14 04:27:59;;;;;;;5.60;2.83;;;;;;;;;;5054943;28;20098;-85
2023/08/14 04:30:24;;;;;;;6.18;2.95;;;;;;;;;;5055383;28;20084;-83
2023/08/14 04:32:49;;;;;;;4.68;2.88;;;;;;;;;;5054671;28;20036;-84
2023/08/14 04:35:15;;;;;;;3.25;2.50;;;;;;;;;;5057692;28;20055;-84
2023/08/14 04:37:40;;;;;;;5.47;2.80;;;;;;;;;;5064104;28;20039;-83
2023/08/14 04:40:06;;;;;;;5.78;3.20;;;;;;;;;;5055248;28;20108;-84
2023/08/14 04:42:35;;;;;;;7.43;3.22;;;;;;;;;;5055649;28;20521;-84
2023/08/14 04:45:12;;;;;;;5.63;3.30;;;;;;;;;;5052326;28;20032;-84
2023/08/14 04:47:44;;;;;;;8.80;3.10;;;;;;;;;;5066736;28;20032;-84
2023/08/14 04:50:11;;;;;;;7.20;3.38;;;;;;;;;;5056199;28;20024;-81
2023/08/14 04:52:39;;;;;;;7.88;3.22;;;;;;;;;;5060841;28;20034;-84
2023/08/14 04:55:06;;;;;;;6.18;2.90;;;;;;;;;;5058284;28;20039;-84
2023/08/14 04:57:34;;;;;;;7.80;3.15;;;;;;;;;;5080199;28;20025;-84
2023/08/14 04:59:59;;;;;;;9.07;4.15;;;;;;;;;;5063172;28;20112;-80
2023/08/14 05:02:27;;;;;;;4.93;2.97;;;;;;;;;;5067731;28;20082;-82
2023/08/14 05:04:52;;;;;;;4.57;3.17;;;;;;;;;;5065153;28;20028;-84
2023/08/14 05:07:18;;;;;;;6.28;3.72;;;;;;;;;;5049913;28;20048;-83
2023/08/14 05:09:43;;;;;;;8.32;3.13;;;;;;;;;;5072449;28;20035;-85
2023/08/14 05:12:08;;;;;;;5.88;3.40;;;;;;;;;;5076115;28;20111;-84
2023/08/14 05:14:34;;;;;;;6.38;3.08;;;;;;;;;;5069962;28;20097;-84
2023/08/14 05:17:02;;;;;;;6.15;3.40;;;;;;;;;;5060121;28;20078;-83
2023/08/14 05:19:28;;;;;;;6.63;3.70;;;;;;;;;;5074116;28;20482;-84
2023/08/14 05:21:53;;;;;;;8.90;3.65;;;;;;;;;;5075231;28;20017;-84
2023/08/14 05:24:18;;;;;;;9.00;3.10;;;;;;;;;;5069132;28;20023;-84
2023/08/14 05:26:46;;;;;;;5.82;3.53;;;;;;;;;;5069905;28;20028;-84
2023/08/14 05:29:11;;;;;;;12.45;3.88;;;;;;;;;;5077160;28;20090;-83
2023/08/14 05:31:37;;;;;;;9.13;3.28;;;;;;;;;;5073997;28;20456;-84
2023/08/14 05:34:02;;;;;;;9.80;3.72;;;;;;;;;;5062946;28;20499;-84
2023/08/14 05:36:27;;;;;;;8.57;3.65;;;;;;;;;;5066731;28;20024;-83
2023/08/14 05:38:53;;;;;;;6.82;3.60;;;;;;;;;;5073864;28;20020;-84
2023/08/14 05:41:21;;;;;;;10.80;4.07;;;;;;;;;;5073847;28;20032;-85
2023/08/14 05:43:48;;;;;;;6.93;3.58;;;;;;;;;;5051034;28;20111;-84
2023/08/14 05:46:14;;;;;;;10.43;3.55;;;;;;;;;;5051522;28;20446;-84
2023/08/14 05:48:39;;;;;;;11.57;3.72;;;;;;;;;;5052394;28;20044;-84
2023/08/14 05:51:07;;;;;;;8.95;3.72;;;;;;;;;;5053715;28;20048;-83
2023/08/14 05:53:35;;;;;;;7.47;3.60;;;;;;;;;;5053566;28;20028;-84
2023/08/14 05:56:00;;;;;;;8.27;3.45;;;;;;;;;;5070856;28;20012;-84
2023/08/14 05:58:26;;;;;;;17.25;3.80;;;;;;;;;;5050202;28;20024;-84
2023/08/14 06:00:52;;;;;;;8.57;3.22;;;;;;;;;;5062462;28;20047;-84
2023/08/14 06:03:18;;;;;;;12.30;3.33;;;;;;;;;;5058452;28;20020;-81
2023/08/14 06:05:43;;;;;;;6.32;3.45;;;;;;;;;;5053976;28;20083;-80
2023/08/14 06:08:09;;;;;;;7.05;3.22;;;;;;;;;;5053014;28;20020;-80
2023/08/14 06:10:35;;;;;;;5.47;2.85;;;;;;;;;;5096045;28;20460;-84
2023/08/14 06:13:04;;;;;;;9.45;3.38;;;;;;;;;;5065743;28;20016;-82
2023/08/14 06:15:30;;;;;;;4.82;3.10;;;;;;;;;;5066523;28;20039;-82
2023/08/14 06:17:56;;;;;;;6.68;3.50;;;;;;;;;;5060601;28;20021;-84
2023/08/14 06:20:21;;;;;;;9.52;3.58;;;;;;;;;;5055416;28;20025;-85
2023/08/14 06:22:47;;;;;;;10.57;3.45;;;;;;;;;;5054962;28;20070;-84
2023/08/14 06:25:19;;;;;;;9.25;3.08;;;;;;;;;;5081439;28;20024;-80
2023/08/14 06:27:46;;;;;;;;;;;;;;;;;;5080283;28;20491;-83
2023/08/14 06:30:12;;;;;;;6.47;3.00;;;;;;;;;;5054623;28;19927;-84
2023/08/14 06:32:38;;;;;;;7.45;2.85;;;;;;;;;;5053952;28;20119;-84
2023/08/14 06:35:04;;;;;;;5.75;2.90;;;;;;;;;;5079876;28;20344;-84
2023/08/14 06:37:32;;;;;;;4.10;2.55;;;;;;;;;;5061051;28;20593;-81
2023/08/14 06:39:58;;;;;;;7.38;2.78;;;;;;;;;;5057572;28;20046;-82
2023/08/14 06:42:23;;;;;;;5.68;2.75;;;;;;;;;;5057653;28;20020;-82
2023/08/14 06:44:48;;;;;;;7.13;2.53;;;;;;;;;;5058219;28;20016;-82
2023/08/14 06:47:17;;;;;;;13.93;2.33;;;;;;;;;;5074881;28;20021;-82
2023/08/14 06:49:42;;;;;;;8.68;2.33;;;;;;;;;;5057024;28;20449;-82
2023/08/14 06:52:08;;;;;;;5.43;2.20;;;;;;;;;;5057091;28;20056;-82
2023/08/14 06:54:33;;;;;;;6.07;2.58;;;;;;;;;;5057038;28;20468;-82
2023/08/14 06:56:58;;;;;;;9.25;2.22;;;;;;;;;;5056875;28;20352;-82
2023/08/14 06:59:24;;;;;;;5.00;2.17;;;;;;;;;;5057422;28;20021;-82
2023/08/14 07:01:49;;;;;;;6.60;1.92;;;;;;;;;;5060551;28;20110;-83
2023/08/14 07:04:14;;;;;;;5.80;1.88;;;;;;;;;;5055782;28;20023;-82
2023/08/14 07:06:40;;;;;;;5.18;1.95;;;;;;;;;;5054599;28;20021;-83
2023/08/14 07:09:05;;;;;;;5.60;1.80;;;;;;;;;;5052748;28;20016;-83
2023/08/14 07:11:36;;;;;;;10.45;1.52;;;;;;;;;;5052937;28;20016;-82
2023/08/14 07:14:02;;;;;;;4.60;1.65;;;;;;;;;;5049970;28;20426;-83
2023/08/14 07:16:27;;;;;;;3.63;1.65;;;;;;;;;;5051132;28;20323;-82
2023/08/14 07:18:52;;;;;;;5.43;1.67;;;;;;;;;;5059430;28;20063;-82
2023/08/14 07:21:18;;;;;;;3.05;1.63;;;;;;;;;;5076621;28;20073;-83
2023/08/14 07:23:43;;;;;;;4.65;1.27;;;;;;;;;;5084532;28;20099;-82
2023/08/14 07:26:15;;;;;;;4.97;1.55;;;;;;;;;;5068638;28;20012;-82
2023/08/14 07:28:41;;;;;;;6.85;1.42;;;;;;;;;;5088554;28;20035;-82
2023/08/14 07:31:09;;;;;;;11.32;1.70;;;;;;;;;;5059390;28;20020;-83
2023/08/14 07:33:42;;;;;;;5.28;1.85;;;;;;;;;;5067327;28;20112;-83
2023/08/14 07:36:10;;;;;;;3.83;1.60;;;;;;;;;;5059528;28;20036;-83
2023/08/14 07:38:36;;;;;;;6.07;1.30;;;;;;;;;;5080900;28;20038;-83
2023/08/14 07:41:02;;;;;;;1.90;1.23;;;;;;;;;;5072292;28;20025;-82
2023/08/14 07:43:27;;;;;;;5.80;1.42;;;;;;;;;;5065047;28;20040;-83
2023/08/14 07:45:54;;;;;;;4.45;1.55;;;;;;;;;;5079103;28;20077;-82
2023/08/14 07:48:19;;;;;;;3.10;1.25;;;;;;;;;;5065264;28;20020;-84
2023/08/14 07:50:50;;;;;;;2.70;1.13;;;;;;;;;;5066017;28;20024;-83
2023/08/14 07:53:15;;;;;;;3.63;1.35;;;;;;;;;;5063087;28;20381;-83
2023/08/14 07:55:43;;;;;;;3.95;1.30;;;;;;;;;;5061293;28;20036;-83
2023/08/14 07:58:09;;;;;;;5.10;1.02;;;;;;;;;;5070485;28;20785;-83
2023/08/14 08:00:35;;;;;;;4.57;1.60;;;;;;;;;;5073017;28;20044;-83
2023/08/14 08:03:02;;;;;;;3.72;1.20;;;;;;;;;;5055289;28;20430;-83
2023/08/14 08:05:31;;;;;;;4.75;1.27;;;;;;;;;;5064845;28;20029;-83
2023/08/14 08:08:01;;;;;;;1.45;0.88;;;;;;;;;;5060792;28;20017;-82
2023/08/14 08:10:29;;;;;;;3.85;1.10;;;;;;;;;;5074302;28;20111;-84
2023/08/14 08:12:55;;;;;;;4.03;1.10;;;;;;;;;;5055961;28;20387;-84
2023/08/14 08:15:20;;;;;;;4.03;1.15;;;;;;;;;;5064909;28;20031;-83
2023/08/14 08:17:46;;;;;;;2.58;1.15;;;;;;;;;;5093157;28;20099;-83
2023/08/14 08:20:11;;;;;;;6.38;1.33;;;;;;;;;;5057095;28;20052;-83
2023/08/14 08:22:39;;;;;;;7.38;1.48;;;;;;;;;;5075080;28;20069;-83
2023/08/14 08:25:05;;;;;;;6.13;1.40;;;;;;;;;;5074722;28;20016;-83
2023/08/14 08:27:30;;;;;;;4.05;1.02;;;;;;;;;;5078301;28;20111;-84
2023/08/14 08:29:56;;;;;;;5.68;1.38;;;;;;;;;;5057938;28;20048;-83
2023/08/14 08:32:21;;;;;;;4.50;0.90;;;;;;;;;;5061091;28;20439;-83
2023/08/14 08:34:46;;;;;;;3.85;0.90;;;;;;;;;;5063328;28;20117;-83
2023/08/14 08:37:12;;;;;;;2.72;0.95;;;;;;;;;;5085204;28;20078;-84
2023/08/14 08:39:37;;;;;;;3.30;1.10;;;;;;;;;;5050895;28;20025;-84
2023/08/14 08:42:02;;;;;;;3.65;1.10;;;;;;;;;;5054014;28;20028;-84
2023/08/14 08:44:34;;;;;;;4.07;0.70;;;;;;;;;;5053370;28;20111;-84
2023/08/14 08:47:04;;;;;;;5.13;1.38;;;;;;;;;;5054224;28;20035;-83
2023/08/14 08:49:29;;;;;;;2.55;0.95;;;;;;;;;;5053118;28;20463;-84
2023/08/14 08:51:55;;;;;;;5.93;1.02;;;;;;;;;;5052780;28;20025;-84
2023/08/14 08:54:20;;;;;;;5.25;1.00;;;;;;;;;;5069903;28;20052;-83
2023/08/14 08:56:46;;;;;;;2.88;1.05;;;;;;;;;;5054693;28;20021;-83
2023/08/14 08:59:12;;;;;;;4.07;1.00;;;;;;;;;;5052612;28;20052;-83
2023/08/14 09:01:41;;;;;;;5.28;0.95;;;;;;;;;;5053616;28;20178;-83
2023/08/14 09:04:07;;;;;;;5.38;1.02;;;;;;;;;;5054095;28;20137;-83
2023/08/14 09:06:33;;;;;;;8.27;0.90;;;;;;;;;;5074114;28;20047;-83
2023/08/14 09:08:58;;;;;;;3.67;1.10;;;;;;;;;;5055487;28;20059;-83
2023/08/14 09:11:24;;;;;;;3.45;1.08;;;;;;;;;;5057160;28;20008;-83
2023/08/14 09:13:50;;;;;;;4.13;1.20;;;;;;;;;;5059849;28;20019;-83
2023/08/14 09:16:15;;;;;;;1.20;0.80;;;;;;;;;;5053638;28;20021;-83
2023/08/14 09:18:43;;;;;;;3.67;1.30;;;;;;;;;;5072165;28;20032;-83
2023/08/14 09:21:09;;;;;;;4.53;1.00;;;;;;;;;;5072663;28;20022;-83
2023/08/14 09:23:35;;;;;;;3.58;1.13;;;;;;;;;;5054494;28;20331;-83
2023/08/14 09:26:01;;;;;;;1.67;0.85;;;;;;;;;;5054796;28;20020;-83
2023/08/14 09:28:26;;;;;;;5.88;1.00;;;;;;;;;;5052380;28;20471;-83
2023/08/14 09:30:52;;;;;;;5.38;1.10;;;;;;;;;;5053246;28;20417;-83
2023/08/14 09:33:17;;;;;;;10.88;1.50;;;;;;;;;;5048728;28;20028;-83
2023/08/14 09:35:51;;;;;;;4.50;0.93;;;;;;;;;;5053675;28;20063;-83
2023/08/14 09:38:19;;;;;;;4.90;1.50;;;;;;;;;;5052793;28;20471;-84
2023/08/14 09:40:44;;;;;;;4.55;1.15;;;;;;;;;;5052400;28;20531;-84
2023/08/14 09:43:11;;;;;;;2.38;1.10;;;;;;;;;;5053579;28;20159;-84
2023/08/14 09:45:36;;;;;;;4.65;1.00;;;;;;;;;;5053689;28;20020;-84
2023/08/14 09:48:05;;;;;;;6.93;1.10;;;;;;;;;;5053004;28;20116;-83
2023/08/14 09:50:35;;;;;;;5.13;0.70;;;;;;;;;;5046345;28;20110;-84
2023/08/14 09:53:00;;;;;;;1.50;1.00;;;;;;;;;;5052529;28;20024;-83
2023/08/14 09:55:29;;;;;;;2.33;0.70;;;;;;;;;;5051587;28;20529;-84
2023/08/14 09:57:57;;;;;;;6.85;0.93;;;;;;;;;;5068116;28;20039;-84
2023/08/14 10:00:30;;;;;;;1.65;0.80;;;;;;;;;;5052463;28;20016;-84
2023/08/14 10:02:56;;;;;;;6.43;1.40;;;;;;;;;;5046313;28;20435;-83
2023/08/14 10:05:23;;;;;;;5.72;0.98;;;;;;;;;;5052836;28;20476;-84
2023/08/14 10:07:49;;;;;;;5.72;1.10;;;;;;;;;;5055473;28;20025;-84
2023/08/14 10:10:15;;;;;;;6.80;1.50;;;;;;;;;;5056636;28;20025;-84
2023/08/14 10:12:45;;;;;;;4.22;0.93;;;;;;;;;;5058208;28;20083;-83
2023/08/14 10:15:21;;;;;;;8.15;1.13;;;;;;;;;;5045896;28;20029;-83
2023/08/14 10:17:51;;;;;;;3.15;0.90;;;;;;;;;;5060024;28;20023;-83
2023/08/14 10:20:17;;;;;;;15.85;1.30;;;;;;;;;;5054944;28;20024;-84
2023/08/14 10:22:43;;;;;;;3.15;1.23;;;;;;;;;;5054012;28;20106;-83
2023/08/14 10:25:10;;;;;;;5.43;0.80;;;;;;;;;;5054212;28;20044;-83
2023/08/14 10:27:35;;;;;;;5.72;1.20;;;;;;;;;;5053438;28;20024;-84
2023/08/14 10:30:01;;;;;;;1.55;0.65;;;;;;;;;;5056439;28;20177;-83
2023/08/14 10:32:27;;;;;;;3.67;1.10;;;;;;;;;;5055830;28;20792;-84
2023/08/14 10:34:52;;;;;;;3.65;1.13;;;;;;;;;;5060340;28;20027;-83
2023/08/14 10:37:28;;;;;;;2.15;0.85;;;;;;;;;;5048905;28;20024;-84
2023/08/14 10:39:57;;;;;;;4.82;1.27;;;;;;;;;;5059947;28;20177;-83
2023/08/14 10:42:22;;;;;;;4.75;1.10;;;;;;;;;;5059821;28;20013;-83
2023/08/14 10:44:49;;;;;;;5.55;1.15;;;;;;;;;;5057601;28;20330;-84
2023/08/14 10:47:14;;;;;;;4.85;0.90;;;;;;;;;;5091565;28;20085;-83
2023/08/14 10:49:43;;;;;;;2.85;1.00;;;;;;;;;;5056454;28;20096;-85
2023/08/14 10:52:11;;;;;;;3.80;0.93;;;;;;;;;;5052296;28;20495;-85
2023/08/14 10:54:37;;;;;;;2.38;0.80;;;;;;;;;;5056536;28;20051;-84
2023/08/14 10:57:06;;;;;;;3.80;1.25;;;;;;;;;;5056341;28;20028;-85
2023/08/14 10:59:33;;;;;;;4.38;1.00;;;;;;;;;;5074538;28;20013;-85
2023/08/14 11:02:05;;;;;;;8.02;1.17;;;;;;;;;;5074378;28;20458;-84
2023/08/14 11:04:31;;;;;;;;;;;;;;;;;;5069104;28;20451;-85
2023/08/14 11:07:11;;;;;;;4.47;1.08;;;;;;;;;;5070132;28;19982;-85
2023/08/14 11:09:37;;;;;;;9.10;0.90;;;;;;;;;;5076305;28;20043;-85
2023/08/14 11:12:09;;;;;;;4.97;1.65;;;;;;;;;;5070260;28;20031;-85
2023/08/14 11:14:36;;;;;;;6.20;1.25;;;;;;;;;;5076450;28;20020;-85
2023/08/14 11:17:02;;;;;;;8.13;1.23;;;;;;;;;;5076552;28;20020;-85
2023/08/14 11:19:28;;;;;;;5.03;1.50;;;;;;;;;;5076237;28;20015;-85
2023/08/14 11:21:53;;;;;;;8.07;1.30;;;;;;;;;;5086418;28;20020;-85
2023/08/14 11:24:18;;;;;;;5.35;1.30;;;;;;;;;;5076314;28;20019;-85
2023/08/14 11:26:44;;;;;;;4.55;1.10;;;;;;;;;;5094810;28;20016;-84
2023/08/14 11:29:09;;;;;;;6.25;1.20;;;;;;;;;;5075733;28;20034;-84
2023/08/14 11:31:34;;;;;;;5.05;1.13;;;;;;;;;;5067160;28;20016;-84
2023/08/14 11:34:00;;;;;;;7.32;1.35;;;;;;;;;;5069408;28;20016;-85
2023/08/14 11:36:25;;;;;;;7.47;1.42;;;;;;;;;;5076025;28;20054;-85
2023/08/14 11:38:51;;;;;;;3.20;0.98;;;;;;;;;;5075797;28;20026;-85
2023/08/14 11:41:16;;;;;;;5.82;1.38;;;;;;;;;;5065619;28;20044;-84
2023/08/14 11:43:41;;;;;;;2.92;0.98;;;;;;;;;;5060301;28;20012;-85
2023/08/14 11:46:10;;;;;;;5.05;1.25;;;;;;;;;;5055705;28;20042;-85
2023/08/14 11:48:38;;;;;;;3.92;0.70;;;;;;;;;;5054020;28;20024;-85
2023/08/14 11:51:03;;;;;;;2.40;0.90;;;;;;;;;;5041678;28;20081;-84
2023/08/14 11:53:29;;;;;;;10.45;1.35;;;;;;;;;;5054860;28;20126;-85
2023/08/14 11:55:54;;;;;;;4.88;1.20;;;;;;;;;;5089368;28;20096;-85
2023/08/14 11:58:20;;;;;;;2.33;1.05;;;;;;;;;;5060244;28;20033;-84
2023/08/14 12:00:49;;;;;;;6.43;1.40;;;;;;;;;;5055082;28;20032;-85
2023/08/14 12:03:15;;;;;;;2.28;0.90;;;;;;;;;;5054745;28;20025;-85
2023/08/14 12:05:44;;;;;;;6.88;1.10;;;;;;;;;;5049586;28;20030;-84
2023/08/14 12:08:11;;;;;;;6.22;1.17;;;;;;;;;;5070073;28;20025;-85
2023/08/14 12:10:38;;;;;;;4.55;0.90;;;;;;;;;;5073316;28;20134;-85
2023/08/14 12:13:04;;;;;;;3.20;1.00;;;;;;;;;;5054830;28;20027;-85
2023/08/14 12:15:29;;;;;;;3.22;0.85;;;;;;;;;;5073331;28;20058;-85
2023/08/14 12:17:57;;;;;;;9.20;1.65;;;;;;;;;;5053088;28;20020;-85
2023/08/14 12:20:23;;;;;;;5.22;1.30;;;;;;;;;;5055198;28;20025;-85
2023/08/14 12:22:51;;;;;;;3.92;1.20;;;;;;;;;;5071721;28;20045;-85
2023/08/14 12:25:19;;;;;;;3.22;0.85;;;;;;;;;;5071938;28;20016;-85
2023/08/14 12:27:45;;;;;;;5.50;1.10;;;;;;;;;;5054658;28;20021;-85
2023/08/14 12:30:11;;;;;;;1.67;0.95;;;;;;;;;;5071855;28;20024;-85
2023/08/14 12:32:43;;;;;;;3.42;1.38;;;;;;;;;;5053918;28;20028;-84
2023/08/14 12:35:09;;;;;;;4.47;1.00;;;;;;;;;;5058383;28;20020;-85
2023/08/14 12:37:36;;;;;;;10.63;1.00;;;;;;;;;;5045655;28;20035;-85
2023/08/14 12:40:08;;;;;;;6.32;1.17;;;;;;;;;;5058296;28;20054;-85
2023/08/14 12:42:33;;;;;;;5.45;1.00;;;;;;;;;;5051384;28;20021;-84
2023/08/14 12:44:59;;;;;;;3.38;1.00;;;;;;;;;;5053294;28;20391;-84
2023/08/14 12:47:24;;;;;;;6.45;1.30;;;;;;;;;;5052757;28;20036;-85
2023/08/14 12:49:49;;;;;;;4.75;1.33;;;;;;;;;;5053873;28;20050;-85
2023/08/14 12:52:15;;;;;;;4.90;1.05;;;;;;;;;;5054310;28;20491;-85
2023/08/14 12:54:40;;;;;;;8.07;1.40;;;;;;;;;;5053932;28;20107;-85
2023/08/14 12:57:05;;;;;;;3.55;1.00;;;;;;;;;;5053099;28;20062;-85
2023/08/14 12:59:31;;;;;;;5.03;1.42;;;;;;;;;;5053755;28;20046;-85
2023/08/14 13:01:56;;;;;;;6.15;1.10;;;;;;;;;;5053479;28;20021;-85
2023/08/14 13:04:21;;;;;;;5.63;1.10;;;;;;;;;;5053451;28;20044;-85
2023/08/14 13:06:47;;;;;;;9.32;1.10;;;;;;;;;;5053673;28;20017;-86
2023/08/14 13:09:12;;;;;;;4.82;1.02;;;;;;;;;;5053941;28;20027;-85
2023/08/14 13:11:38;;;;;;;4.88;1.42;;;;;;;;;;5051282;28;20020;-85
2023/08/14 13:14:03;;;;;;;6.53;1.15;;;;;;;;;;5053876;28;20020;-85
2023/08/14 13:16:28;;;;;;;4.40;1.10;;;;;;;;;;5071896;28;20032;-85
2023/08/14 13:18:54;;;;;;;4.82;1.05;;;;;;;;;;5051727;28;20031;-85
2023/08/14 13:21:19;;;;;;;3.42;0.88;;;;;;;;;;5070630;28;20084;-85
2023/08/14 13:23:47;;;;;;;9.57;1.65;;;;;;;;;;5057609;28;20093;-85
2023/08/14 13:26:12;;;;;;;2.90;1.52;;;;;;;;;;5068378;28;20032;-85
2023/08/14 13:28:39;;;;;;;2.28;0.75;;;;;;;;;;5063356;28;20530;-85
2023/08/14 13:31:06;;;;;;;5.65;1.02;;;;;;;;;;5067760;28;20081;-84
2023/08/14 13:33:32;;;;;;;3.63;1.13;;;;;;;;;;5075675;28;20095;-85
2023/08/14 13:35:58;;;;;;;5.10;1.13;;;;;;;;;;5057970;28;20521;-85
2023/08/14 13:38:23;;;;;;;6.40;1.17;;;;;;;;;;5063851;28;20384;-85
2023/08/14 13:40:49;;;;;;;5.47;0.95;;;;;;;;;;5076701;28;20012;-85
2023/08/14 13:43:14;;;;;;;7.22;0.95;;;;;;;;;;5063725;28;20017;-85
2023/08/14 13:45:42;;;;;;;2.08;1.00;;;;;;;;;;5054834;28;20424;-84
2023/08/14 13:48:08;;;;;;;3.92;1.08;;;;;;;;;;5054112;28;20062;-85
2023/08/14 13:50:33;;;;;;;3.40;1.00;;;;;;;;;;5055413;28;20032;-85
2023/08/14 13:53:02;;;;;;;7.18;0.98;;;;;;;;;;5051244;28;20479;-85
2023/08/14 13:55:28;;;;;;;7.20;1.10;;;;;;;;;;5054543;28;20127;-84
2023/08/14 13:57:53;;;;;;;8.77;1.10;;;;;;;;;;5068909;28;20085;-85
2023/08/14 14:00:19;;;;;;;2.83;1.13;;;;;;;;;;5053211;28;20447;-86
2023/08/14 14:02:44;;;;;;;5.38;1.70;;;;;;;;;;5053266;28;20394;-85
2023/08/14 14:05:11;;;;;;;4.40;1.23;;;;;;;;;;5054049;28;20016;-85
2023/08/14 14:07:36;;;;;;;2.75;0.80;;;;;;;;;;5052060;28;20032;-85
2023/08/14 14:10:01;;;;;;;4.75;0.98;;;;;;;;;;5052333;28;20105;-86
2023/08/14 14:12:28;;;;;;;2.45;1.05;;;;;;;;;;5052239;28;20562;-85
2023/08/14 14:14:53;;;;;;;4.40;0.88;;;;;;;;;;5054275;28;20025;-85
2023/08/14 14:17:21;;;;;;;3.92;1.00;;;;;;;;;;5058454;28;20035;-84
2023/08/14 14:19:46;;;;;;;2.75;0.68;;;;;;;;;;5057778;28;20527;-85
2023/08/14 14:22:11;;;;;;;6.45;1.10;;;;;;;;;;5044423;28;20052;-86
2023/08/14 14:24:39;;;;;;;5.88;0.90;;;;;;;;;;5053272;28;20043;-85
2023/08/14 14:27:04;;;;;;;3.80;1.13;;;;;;;;;;5053212;28;20075;-86
2023/08/14 14:29:30;;;;;;;2.67;0.98;;;;;;;;;;5051873;28;20044;-85
2023/08/14 14:31:56;;;;;;;5.20;0.80;;;;;;;;;;5071484;28;20033;-85
2023/08/14 14:34:24;;;;;;;5.07;1.05;;;;;;;;;;5053094;28;20017;-85
2023/08/14 14:36:49;;;;;;;4.80;1.08;;;;;;;;;;5053257;28;20071;-86
2023/08/14 14:39:15;;;;;;;4.15;1.00;;;;;;;;;;5070222;28;20468;-85